sensor_id;sensor_type;location;lat;lon;timestamp;temperature;humidity
12853;DHT22;6495;51.808;7.478;2023-04-25T00:02:47;7.90;99.90
12853;DHT22;6495;51.808;7.478;2023-04-25T00:05:37;7.90;99.90
12853;DHT22;6495;51.808;7.478;2023-04-25T00:08:26;7.90;99.90
12853;DHT22;6495;51.808;7.478;2023-04-25T00:11:15;7.90;99.90
12853;DHT22;6495;51.808;7.478;2023-04-25T00:14:03;7.90;99.90
12853;DHT22;6495;51.808;7.478;2023-04-25T00:16:53;7.90;99.90
12853;DHT22;6495;51.808;7.478;2023-04-25T00:19:43;7.90;99.90
12853;DHT22;6495;51.808;7.478;2023-04-25T00:22:34;7.90;99.90
12853;DHT22;6495;51.808;7.478;2023-04-25T00:25:24;7.90;99.90
12853;DHT22;6495;51.808;7.478;2023-04-25T00:28:13;7.90;99.90
12853;DHT22;6495;51.808;7.478;2023-04-25T00:31:02;7.90;99.90
12853;DHT22;6495;51.808;7.478;2023-04-25T00:33:51;7.90;99.90
12853;DHT22;6495;51.808;7.478;2023-04-25T00:36:40;7.90;99.90
12853;DHT22;6495;51.808;7.478;2023-04-25T00:39:30;7.90;99.90
12853;DHT22;6495;51.808;7.478;2023-04-25T00:42:19;7.90;99.90
12853;DHT22;6495;51.808;7.478;2023-04-25T00:45:09;7.90;99.90
12853;DHT22;6495;51.808;7.478;2023-04-25T00:48:02;7.90;99.90
12853;DHT22;6495;51.808;7.478;2023-04-25T00:50:54;7.90;99.90
12853;DHT22;6495;51.808;7.478;2023-04-25T00:53:45;7.90;99.90
12853;DHT22;6495;51.808;7.478;2023-04-25T00:56:36;7.90;99.90
12853;DHT22;6495;51.808;7.478;2023-04-25T00:59:25;7.90;99.90
12853;DHT22;6495;51.808;7.478;2023-04-25T01:02:14;7.90;99.90
12853;DHT22;6495;51.808;7.478;2023-04-25T01:05:04;7.90;99.90
12853;DHT22;6495;51.808;7.478;2023-04-25T01:07:53;7.90;99.90
12853;DHT22;6495;51.808;7.478;2023-04-25T01:10:41;7.90;99.90
12853;DHT22;6495;51.808;7.478;2023-04-25T01:13:31;7.90;99.90
12853;DHT22;6495;51.808;7.478;2023-04-25T01:16:21;7.90;99.90
12853;DHT22;6495;51.808;7.478;2023-04-25T01:19:11;7.90;99.90
12853;DHT22;6495;51.808;7.478;2023-04-25T01:22:01;7.90;99.90
12853;DHT22;6495;51.808;7.478;2023-04-25T01:24:50;7.90;99.90
12853;DHT22;6495;51.808;7.478;2023-04-25T01:27:40;7.90;99.90
12853;DHT22;6495;51.808;7.478;2023-04-25T01:30:29;7.90;99.90
12853;DHT22;6495;51.808;7.478;2023-04-25T01:33:19;7.90;99.90
12853;DHT22;6495;51.808;7.478;2023-04-25T01:36:09;7.90;99.90
12853;DHT22;6495;51.808;7.478;2023-04-25T01:39:00;8.00;99.90
12853;DHT22;6495;51.808;7.478;2023-04-25T01:41:49;8.00;99.90
12853;DHT22;6495;51.808;7.478;2023-04-25T01:44:38;8.00;99.90
12853;DHT22;6495;51.808;7.478;2023-04-25T01:47:27;7.90;99.90
12853;DHT22;6495;51.808;7.478;2023-04-25T01:50:19;8.00;99.90
12853;DHT22;6495;51.808;7.478;2023-04-25T01:53:09;8.00;99.90
12853;DHT22;6495;51.808;7.478;2023-04-25T01:56:04;8.00;99.90
12853;DHT22;6495;51.808;7.478;2023-04-25T01:58:54;8.00;99.90
12853;DHT22;6495;51.808;7.478;2023-04-25T02:02:09;8.00;99.90
12853;DHT22;6495;51.808;7.478;2023-04-25T02:04:58;8.00;99.90
12853;DHT22;6495;51.808;7.478;2023-04-25T02:07:48;8.00;99.90
12853;DHT22;6495;51.808;7.478;2023-04-25T02:10:37;8.00;99.90
12853;DHT22;6495;51.808;7.478;2023-04-25T02:13:40;8.00;99.90
12853;DHT22;6495;51.808;7.478;2023-04-25T02:16:47;8.00;99.90
12853;DHT22;6495;51.808;7.478;2023-04-25T02:19:36;8.00;99.90
12853;DHT22;6495;51.808;7.478;2023-04-25T02:22:27;8.00;99.90
12853;DHT22;6495;51.808;7.478;2023-04-25T02:25:17;8.00;99.90
12853;DHT22;6495;51.808;7.478;2023-04-25T02:28:07;7.90;99.90
12853;DHT22;6495;51.808;7.478;2023-04-25T02:30:58;7.90;99.90
12853;DHT22;6495;51.808;7.478;2023-04-25T02:33:47;7.90;99.90
12853;DHT22;6495;51.808;7.478;2023-04-25T02:36:37;7.90;99.90
12853;DHT22;6495;51.808;7.478;2023-04-25T02:39:26;7.90;99.90
12853;DHT22;6495;51.808;7.478;2023-04-25T02:42:15;7.90;99.90
12853;DHT22;6495;51.808;7.478;2023-04-25T02:45:05;7.90;99.90
12853;DHT22;6495;51.808;7.478;2023-04-25T02:47:55;7.90;99.90
12853;DHT22;6495;51.808;7.478;2023-04-25T02:50:44;7.90;99.90
12853;DHT22;6495;51.808;7.478;2023-04-25T02:53:33;7.90;99.90
12853;DHT22;6495;51.808;7.478;2023-04-25T02:56:21;7.90;99.90
12853;DHT22;6495;51.808;7.478;2023-04-25T02:59:10;7.90;99.90
12853;DHT22;6495;51.808;7.478;2023-04-25T03:01:59;7.90;99.90
12853;DHT22;6495;51.808;7.478;2023-04-25T03:04:49;7.80;99.90
12853;DHT22;6495;51.808;7.478;2023-04-25T03:07:38;7.80;99.90
12853;DHT22;6495;51.808;7.478;2023-04-25T03:10:29;7.80;99.90
12853;DHT22;6495;51.808;7.478;2023-04-25T03:13:22;7.80;99.90
12853;DHT22;6495;51.808;7.478;2023-04-25T03:16:11;7.80;99.90
12853;DHT22;6495;51.808;7.478;2023-04-25T03:19:00;7.80;99.90
12853;DHT22;6495;51.808;7.478;2023-04-25T03:21:50;7.80;99.90
12853;DHT22;6495;51.808;7.478;2023-04-25T03:24:39;7.80;99.90
12853;DHT22;6495;51.808;7.478;2023-04-25T03:27:27;7.80;99.90
12853;DHT22;6495;51.808;7.478;2023-04-25T03:30:16;7.80;99.90
12853;DHT22;6495;51.808;7.478;2023-04-25T03:33:05;7.80;99.90
12853;DHT22;6495;51.808;7.478;2023-04-25T03:35:54;7.80;99.90
12853;DHT22;6495;51.808;7.478;2023-04-25T03:38:44;7.80;99.90
12853;DHT22;6495;51.808;7.478;2023-04-25T03:41:35;7.70;99.90
12853;DHT22;6495;51.808;7.478;2023-04-25T03:44:29;7.70;99.90
12853;DHT22;6495;51.808;7.478;2023-04-25T03:47:19;7.70;99.90
12853;DHT22;6495;51.808;7.478;2023-04-25T03:50:09;7.70;99.90
12853;DHT22;6495;51.808;7.478;2023-04-25T03:52:58;7.70;99.90
12853;DHT22;6495;51.808;7.478;2023-04-25T03:55:53;7.70;99.90
12853;DHT22;6495;51.808;7.478;2023-04-25T03:58:41;7.70;99.90
12853;DHT22;6495;51.808;7.478;2023-04-25T04:01:30;7.70;99.90
12853;DHT22;6495;51.808;7.478;2023-04-25T04:04:19;7.70;99.90
12853;DHT22;6495;51.808;7.478;2023-04-25T04:07:09;7.70;99.90
12853;DHT22;6495;51.808;7.478;2023-04-25T04:10:01;7.70;99.90
12853;DHT22;6495;51.808;7.478;2023-04-25T04:12:57;7.70;99.90
12853;DHT22;6495;51.808;7.478;2023-04-25T04:15:45;7.70;99.90
12853;DHT22;6495;51.808;7.478;2023-04-25T04:18:35;7.70;99.90
12853;DHT22;6495;51.808;7.478;2023-04-25T04:21:24;7.70;99.90
12853;DHT22;6495;51.808;7.478;2023-04-25T04:24:14;7.70;99.90
12853;DHT22;6495;51.808;7.478;2023-04-25T04:27:12;7.70;99.90
12853;DHT22;6495;51.808;7.478;2023-04-25T04:30:08;7.70;99.90
12853;DHT22;6495;51.808;7.478;2023-04-25T04:33:07;7.70;99.90
12853;DHT22;6495;51.808;7.478;2023-04-25T04:35:56;7.70;99.90
12853;DHT22;6495;51.808;7.478;2023-04-25T04:38:46;7.60;99.90
12853;DHT22;6495;51.808;7.478;2023-04-25T04:41:50;7.60;99.90
12853;DHT22;6495;51.808;7.478;2023-04-25T04:44:59;7.60;99.90
12853;DHT22;6495;51.808;7.478;2023-04-25T04:48:18;7.60;99.90
12853;DHT22;6495;51.808;7.478;2023-04-25T04:51:26;7.60;99.90
12853;DHT22;6495;51.808;7.478;2023-04-25T04:54:44;7.60;99.90
12853;DHT22;6495;51.808;7.478;2023-04-25T04:57:37;7.60;99.90
12853;DHT22;6495;51.808;7.478;2023-04-25T05:00:40;7.50;99.90
12853;DHT22;6495;51.808;7.478;2023-04-25T05:03:48;7.50;99.90
12853;DHT22;6495;51.808;7.478;2023-04-25T05:06:54;7.60;99.90
12853;DHT22;6495;51.808;7.478;2023-04-25T05:10:09;7.60;99.90
12853;DHT22;6495;51.808;7.478;2023-04-25T05:13:22;7.60;99.90
12853;DHT22;6495;51.808;7.478;2023-04-25T05:16:29;7.60;99.90
12853;DHT22;6495;51.808;7.478;2023-04-25T05:19:45;7.50;99.90
12853;DHT22;6495;51.808;7.478;2023-04-25T05:23:02;7.60;99.90
12853;DHT22;6495;51.808;7.478;2023-04-25T05:26:11;7.50;99.90
12853;DHT22;6495;51.808;7.478;2023-04-25T05:29:11;7.60;99.90
12853;DHT22;6495;51.808;7.478;2023-04-25T05:32:29;7.60;99.90
12853;DHT22;6495;51.808;7.478;2023-04-25T05:35:19;7.60;99.90
12853;DHT22;6495;51.808;7.478;2023-04-25T05:38:10;7.60;99.90
12853;DHT22;6495;51.808;7.478;2023-04-25T05:41:21;7.60;99.90
12853;DHT22;6495;51.808;7.478;2023-04-25T05:44:20;7.60;99.90
12853;DHT22;6495;51.808;7.478;2023-04-25T05:47:23;7.60;99.90
12853;DHT22;6495;51.808;7.478;2023-04-25T05:50:42;7.60;99.90
12853;DHT22;6495;51.808;7.478;2023-04-25T05:53:58;7.60;99.90
12853;DHT22;6495;51.808;7.478;2023-04-25T05:56:48;7.60;99.90
12853;DHT22;6495;51.808;7.478;2023-04-25T05:59:37;7.60;99.90
12853;DHT22;6495;51.808;7.478;2023-04-25T06:02:26;7.50;99.90
12853;DHT22;6495;51.808;7.478;2023-04-25T06:05:15;7.50;99.90
12853;DHT22;6495;51.808;7.478;2023-04-25T06:08:07;7.50;99.90
12853;DHT22;6495;51.808;7.478;2023-04-25T06:10:57;7.50;99.90
12853;DHT22;6495;51.808;7.478;2023-04-25T06:13:46;7.60;99.90
12853;DHT22;6495;51.808;7.478;2023-04-25T06:16:36;7.60;99.90
12853;DHT22;6495;51.808;7.478;2023-04-25T06:19:25;7.60;99.90
12853;DHT22;6495;51.808;7.478;2023-04-25T06:22:13;7.70;99.90
12853;DHT22;6495;51.808;7.478;2023-04-25T06:25:04;7.70;99.90
12853;DHT22;6495;51.808;7.478;2023-04-25T06:27:54;7.80;99.90
12853;DHT22;6495;51.808;7.478;2023-04-25T06:30:43;7.80;99.90
12853;DHT22;6495;51.808;7.478;2023-04-25T06:33:36;7.80;99.90
12853;DHT22;6495;51.808;7.478;2023-04-25T06:36:25;7.80;99.90
12853;DHT22;6495;51.808;7.478;2023-04-25T06:39:20;7.80;99.90
12853;DHT22;6495;51.808;7.478;2023-04-25T06:42:11;7.80;99.90
12853;DHT22;6495;51.808;7.478;2023-04-25T06:45:12;7.80;99.90
12853;DHT22;6495;51.808;7.478;2023-04-25T06:48:01;7.80;99.90
12853;DHT22;6495;51.808;7.478;2023-04-25T06:50:50;7.90;99.90
12853;DHT22;6495;51.808;7.478;2023-04-25T06:53:39;7.90;99.90
12853;DHT22;6495;51.808;7.478;2023-04-25T06:56:31;7.90;99.90
12853;DHT22;6495;51.808;7.478;2023-04-25T06:59:30;7.90;99.90
12853;DHT22;6495;51.808;7.478;2023-04-25T07:02:19;7.90;99.90
12853;DHT22;6495;51.808;7.478;2023-04-25T07:05:10;8.00;99.90
12853;DHT22;6495;51.808;7.478;2023-04-25T07:07:59;8.00;99.90
12853;DHT22;6495;51.808;7.478;2023-04-25T07:10:48;8.10;99.90
12853;DHT22;6495;51.808;7.478;2023-04-25T07:13:37;8.10;99.90
12853;DHT22;6495;51.808;7.478;2023-04-25T07:16:27;8.20;99.90
12853;DHT22;6495;51.808;7.478;2023-04-25T07:19:17;8.20;99.90
12853;DHT22;6495;51.808;7.478;2023-04-25T07:22:06;8.30;99.90
12853;DHT22;6495;51.808;7.478;2023-04-25T07:24:57;8.40;99.90
12853;DHT22;6495;51.808;7.478;2023-04-25T07:27:48;8.40;99.90
12853;DHT22;6495;51.808;7.478;2023-04-25T07:30:39;8.50;99.90
12853;DHT22;6495;51.808;7.478;2023-04-25T07:33:29;8.60;99.90
12853;DHT22;6495;51.808;7.478;2023-04-25T07:36:17;8.60;99.90
12853;DHT22;6495;51.808;7.478;2023-04-25T07:39:06;8.70;99.90
12853;DHT22;6495;51.808;7.478;2023-04-25T07:41:56;8.70;99.90
12853;DHT22;6495;51.808;7.478;2023-04-25T07:44:48;8.80;99.90
12853;DHT22;6495;51.808;7.478;2023-04-25T07:47:38;8.80;99.90
12853;DHT22;6495;51.808;7.478;2023-04-25T07:50:29;8.80;99.90
12853;DHT22;6495;51.808;7.478;2023-04-25T07:53:18;8.90;99.90
12853;DHT22;6495;51.808;7.478;2023-04-25T07:56:12;8.90;99.90
12853;DHT22;6495;51.808;7.478;2023-04-25T07:59:04;9.00;99.90
12853;DHT22;6495;51.808;7.478;2023-04-25T08:01:53;9.10;99.90
12853;DHT22;6495;51.808;7.478;2023-04-25T08:04:42;9.10;99.90
12853;DHT22;6495;51.808;7.478;2023-04-25T08:07:34;9.20;99.90
12853;DHT22;6495;51.808;7.478;2023-04-25T08:10:25;9.20;99.90
12853;DHT22;6495;51.808;7.478;2023-04-25T08:13:14;9.30;99.90
12853;DHT22;6495;51.808;7.478;2023-04-25T08:16:04;9.30;99.90
12853;DHT22;6495;51.808;7.478;2023-04-25T08:18:54;9.30;99.90
12853;DHT22;6495;51.808;7.478;2023-04-25T08:21:42;9.30;99.90
12853;DHT22;6495;51.808;7.478;2023-04-25T08:24:36;9.40;99.90
12853;DHT22;6495;51.808;7.478;2023-04-25T08:27:27;9.50;99.90
12853;DHT22;6495;51.808;7.478;2023-04-25T08:30:16;9.50;99.90
12853;DHT22;6495;51.808;7.478;2023-04-25T08:33:06;9.50;99.90
12853;DHT22;6495;51.808;7.478;2023-04-25T08:36:13;9.50;99.90
12853;DHT22;6495;51.808;7.478;2023-04-25T08:39:21;9.50;99.90
12853;DHT22;6495;51.808;7.478;2023-04-25T08:42:38;9.50;99.90
12853;DHT22;6495;51.808;7.478;2023-04-25T08:45:31;9.50;99.90
12853;DHT22;6495;51.808;7.478;2023-04-25T08:48:24;9.40;99.90
12853;DHT22;6495;51.808;7.478;2023-04-25T08:51:22;9.50;99.90
12853;DHT22;6495;51.808;7.478;2023-04-25T08:54:13;9.50;99.90
12853;DHT22;6495;51.808;7.478;2023-04-25T08:57:21;9.60;99.90
12853;DHT22;6495;51.808;7.478;2023-04-25T09:00:13;9.60;99.90
12853;DHT22;6495;51.808;7.478;2023-04-25T09:03:04;9.70;99.90
12853;DHT22;6495;51.808;7.478;2023-04-25T09:05:54;9.70;99.90
12853;DHT22;6495;51.808;7.478;2023-04-25T09:08:43;9.70;99.90
12853;DHT22;6495;51.808;7.478;2023-04-25T09:11:32;9.80;99.90
12853;DHT22;6495;51.808;7.478;2023-04-25T09:14:24;9.80;99.90
12853;DHT22;6495;51.808;7.478;2023-04-25T09:17:25;10.00;99.90
12853;DHT22;6495;51.808;7.478;2023-04-25T09:20:16;10.10;99.90
12853;DHT22;6495;51.808;7.478;2023-04-25T09:23:05;10.20;99.90
12853;DHT22;6495;51.808;7.478;2023-04-25T09:25:57;10.30;99.90
12853;DHT22;6495;51.808;7.478;2023-04-25T09:28:46;10.40;99.90
12853;DHT22;6495;51.808;7.478;2023-04-25T09:31:38;10.50;99.90
12853;DHT22;6495;51.808;7.478;2023-04-25T09:34:41;10.60;99.90
12853;DHT22;6495;51.808;7.478;2023-04-25T09:37:32;10.70;99.90
12853;DHT22;6495;51.808;7.478;2023-04-25T09:40:40;10.80;99.90
12853;DHT22;6495;51.808;7.478;2023-04-25T09:43:40;10.90;99.90
12853;DHT22;6495;51.808;7.478;2023-04-25T09:46:34;11.00;99.90
12853;DHT22;6495;51.808;7.478;2023-04-25T09:49:33;11.00;99.90
12853;DHT22;6495;51.808;7.478;2023-04-25T09:52:26;11.00;99.90
12853;DHT22;6495;51.808;7.478;2023-04-25T09:55:29;11.00;99.90
12853;DHT22;6495;51.808;7.478;2023-04-25T09:58:20;10.80;99.90
12853;DHT22;6495;51.808;7.478;2023-04-25T10:01:10;10.80;99.90
12853;DHT22;6495;51.808;7.478;2023-04-25T10:04:19;10.70;99.90
12853;DHT22;6495;51.808;7.478;2023-04-25T10:07:30;10.60;99.90
12853;DHT22;6495;51.808;7.478;2023-04-25T10:10:20;10.60;99.90
12853;DHT22;6495;51.808;7.478;2023-04-25T10:13:12;10.60;99.90
12853;DHT22;6495;51.808;7.478;2023-04-25T10:16:04;10.70;99.90
12853;DHT22;6495;51.808;7.478;2023-04-25T10:18:53;10.60;99.90
12853;DHT22;6495;51.808;7.478;2023-04-25T10:21:48;10.70;99.90
12853;DHT22;6495;51.808;7.478;2023-04-25T10:24:41;10.70;99.90
12853;DHT22;6495;51.808;7.478;2023-04-25T10:27:31;10.60;99.90
12853;DHT22;6495;51.808;7.478;2023-04-25T10:30:20;10.60;99.90
12853;DHT22;6495;51.808;7.478;2023-04-25T10:33:16;10.60;99.90
12853;DHT22;6495;51.808;7.478;2023-04-25T10:36:10;10.60;99.90
12853;DHT22;6495;51.808;7.478;2023-04-25T10:39:03;10.60;99.90
12853;DHT22;6495;51.808;7.478;2023-04-25T10:41:58;10.60;99.90
12853;DHT22;6495;51.808;7.478;2023-04-25T10:45:01;10.70;99.90
12853;DHT22;6495;51.808;7.478;2023-04-25T10:47:52;10.70;99.90
12853;DHT22;6495;51.808;7.478;2023-04-25T10:50:42;10.70;99.90
12853;DHT22;6495;51.808;7.478;2023-04-25T10:53:33;10.80;99.90
12853;DHT22;6495;51.808;7.478;2023-04-25T10:56:24;10.90;99.90
12853;DHT22;6495;51.808;7.478;2023-04-25T10:59:16;11.00;99.90
12853;DHT22;6495;51.808;7.478;2023-04-25T11:02:11;11.00;99.90
12853;DHT22;6495;51.808;7.478;2023-04-25T11:05:01;11.10;99.90
12853;DHT22;6495;51.808;7.478;2023-04-25T11:07:52;11.20;99.90
12853;DHT22;6495;51.808;7.478;2023-04-25T11:10:55;11.30;99.90
12853;DHT22;6495;51.808;7.478;2023-04-25T11:13:44;11.40;99.90
12853;DHT22;6495;51.808;7.478;2023-04-25T11:16:38;11.40;99.90
12853;DHT22;6495;51.808;7.478;2023-04-25T11:19:27;11.60;99.90
12853;DHT22;6495;51.808;7.478;2023-04-25T11:22:16;11.70;99.90
12853;DHT22;6495;51.808;7.478;2023-04-25T11:25:06;11.80;99.90
12853;DHT22;6495;51.808;7.478;2023-04-25T11:27:58;11.90;99.90
12853;DHT22;6495;51.808;7.478;2023-04-25T11:30:48;12.00;99.90
12853;DHT22;6495;51.808;7.478;2023-04-25T11:33:39;12.10;99.90
12853;DHT22;6495;51.808;7.478;2023-04-25T11:36:29;12.20;99.90
12853;DHT22;6495;51.808;7.478;2023-04-25T11:39:19;12.30;99.90
12853;DHT22;6495;51.808;7.478;2023-04-25T11:42:09;12.40;99.90
12853;DHT22;6495;51.808;7.478;2023-04-25T11:45:00;12.50;99.90
12853;DHT22;6495;51.808;7.478;2023-04-25T11:47:49;12.50;99.90
12853;DHT22;6495;51.808;7.478;2023-04-25T11:50:40;12.60;99.90
12853;DHT22;6495;51.808;7.478;2023-04-25T11:53:29;12.70;99.90
12853;DHT22;6495;51.808;7.478;2023-04-25T11:56:18;12.70;99.90
12853;DHT22;6495;51.808;7.478;2023-04-25T11:59:07;12.50;99.90
12853;DHT22;6495;51.808;7.478;2023-04-25T12:01:57;12.40;99.90
12853;DHT22;6495;51.808;7.478;2023-04-25T12:04:48;12.10;99.90
12853;DHT22;6495;51.808;7.478;2023-04-25T12:07:39;11.80;99.90
12853;DHT22;6495;51.808;7.478;2023-04-25T12:10:29;11.50;99.90
12853;DHT22;6495;51.808;7.478;2023-04-25T12:13:20;11.20;99.90
12853;DHT22;6495;51.808;7.478;2023-04-25T12:16:10;10.90;99.90
12853;DHT22;6495;51.808;7.478;2023-04-25T12:18:59;10.60;99.90
12853;DHT22;6495;51.808;7.478;2023-04-25T12:21:49;10.40;99.90
12853;DHT22;6495;51.808;7.478;2023-04-25T12:24:44;10.30;99.90
12853;DHT22;6495;51.808;7.478;2023-04-25T12:27:33;10.20;99.90
12853;DHT22;6495;51.808;7.478;2023-04-25T12:30:23;10.10;99.90
12853;DHT22;6495;51.808;7.478;2023-04-25T12:33:12;10.10;99.90
12853;DHT22;6495;51.808;7.478;2023-04-25T12:36:02;10.00;99.90
12853;DHT22;6495;51.808;7.478;2023-04-25T12:38:55;10.00;99.90
12853;DHT22;6495;51.808;7.478;2023-04-25T12:41:48;10.00;99.90
12853;DHT22;6495;51.808;7.478;2023-04-25T12:44:37;10.10;99.90
12853;DHT22;6495;51.808;7.478;2023-04-25T12:47:36;10.10;99.90
12853;DHT22;6495;51.808;7.478;2023-04-25T12:50:25;10.20;99.90
12853;DHT22;6495;51.808;7.478;2023-04-25T12:53:14;10.20;99.90
12853;DHT22;6495;51.808;7.478;2023-04-25T12:56:03;10.30;99.90
12853;DHT22;6495;51.808;7.478;2023-04-25T12:58:55;10.50;99.90
12853;DHT22;6495;51.808;7.478;2023-04-25T13:01:45;10.60;99.90
12853;DHT22;6495;51.808;7.478;2023-04-25T13:04:35;10.70;99.90
12853;DHT22;6495;51.808;7.478;2023-04-25T13:11:54;11.00;99.90
12853;DHT22;6495;51.808;7.478;2023-04-25T13:18:42;11.20;99.90
12853;DHT22;6495;51.808;7.478;2023-04-25T13:24:28;11.30;99.90
12853;DHT22;6495;51.808;7.478;2023-04-25T13:26:01;11.40;99.90
12853;DHT22;6495;51.808;7.478;2023-04-25T13:29:08;11.50;99.90
12853;DHT22;6495;51.808;7.478;2023-04-25T13:51:50;11.80;99.90
12853;DHT22;6495;51.808;7.478;2023-04-25T14:16:52;11.90;99.90
12853;DHT22;6495;51.808;7.478;2023-04-25T14:19:41;11.50;99.90
12853;DHT22;6495;51.808;7.478;2023-04-25T14:22:32;11.30;99.90
12853;DHT22;6495;51.808;7.478;2023-04-25T14:25:21;11.20;99.90
12853;DHT22;6495;51.808;7.478;2023-04-25T14:28:10;11.10;99.90
12853;DHT22;6495;51.808;7.478;2023-04-25T14:35:06;11.20;99.90
12853;DHT22;6495;51.808;7.478;2023-04-25T14:37:56;11.20;99.90
12853;DHT22;6495;51.808;7.478;2023-04-25T14:40:50;11.30;99.90
12853;DHT22;6495;51.808;7.478;2023-04-25T14:43:40;11.40;99.90
12853;DHT22;6495;51.808;7.478;2023-04-25T14:46:29;11.50;99.90
12853;DHT22;6495;51.808;7.478;2023-04-25T14:49:18;11.60;99.90
12853;DHT22;6495;51.808;7.478;2023-04-25T14:52:08;11.70;99.90
12853;DHT22;6495;51.808;7.478;2023-04-25T14:54:57;11.80;99.90
12853;DHT22;6495;51.808;7.478;2023-04-25T14:57:47;11.90;99.90
12853;DHT22;6495;51.808;7.478;2023-04-25T15:00:35;11.90;99.90
12853;DHT22;6495;51.808;7.478;2023-04-25T15:03:24;12.00;99.90
12853;DHT22;6495;51.808;7.478;2023-04-25T15:06:13;12.10;99.90
12853;DHT22;6495;51.808;7.478;2023-04-25T15:09:03;12.20;99.90
12853;DHT22;6495;51.808;7.478;2023-04-25T15:11:52;12.40;99.90
12853;DHT22;6495;51.808;7.478;2023-04-25T15:14:41;12.40;99.90
12853;DHT22;6495;51.808;7.478;2023-04-25T15:17:29;12.50;99.90
12853;DHT22;6495;51.808;7.478;2023-04-25T15:20:18;12.50;99.90
12853;DHT22;6495;51.808;7.478;2023-04-25T15:23:07;12.60;99.90
12853;DHT22;6495;51.808;7.478;2023-04-25T15:25:57;12.70;99.90
12853;DHT22;6495;51.808;7.478;2023-04-25T15:28:46;12.70;99.90
12853;DHT22;6495;51.808;7.478;2023-04-25T15:31:35;12.70;99.90
12853;DHT22;6495;51.808;7.478;2023-04-25T15:34:24;12.70;99.90
12853;DHT22;6495;51.808;7.478;2023-04-25T15:37:13;12.50;99.90
12853;DHT22;6495;51.808;7.478;2023-04-25T15:40:04;12.40;99.90
12853;DHT22;6495;51.808;7.478;2023-04-25T15:42:57;12.40;99.90
12853;DHT22;6495;51.808;7.478;2023-04-25T15:45:46;12.20;99.90
12853;DHT22;6495;51.808;7.478;2023-04-25T15:48:36;12.20;99.90
12853;DHT22;6495;51.808;7.478;2023-04-25T15:51:24;12.10;99.90
12853;DHT22;6495;51.808;7.478;2023-04-25T15:54:14;12.00;99.90
12853;DHT22;6495;51.808;7.478;2023-04-25T15:57:04;11.90;99.90
12853;DHT22;6495;51.808;7.478;2023-04-25T15:59:55;11.90;99.90
12853;DHT22;6495;51.808;7.478;2023-04-25T16:02:45;12.00;99.90
12853;DHT22;6495;51.808;7.478;2023-04-25T16:05:34;12.10;99.90
12853;DHT22;6495;51.808;7.478;2023-04-25T16:08:23;12.10;99.90
12853;DHT22;6495;51.808;7.478;2023-04-25T16:11:15;12.00;99.90
12853;DHT22;6495;51.808;7.478;2023-04-25T16:14:08;12.00;99.90
12853;DHT22;6495;51.808;7.478;2023-04-25T16:16:58;11.90;99.90
12853;DHT22;6495;51.808;7.478;2023-04-25T16:19:47;11.90;99.90
12853;DHT22;6495;51.808;7.478;2023-04-25T16:22:37;11.80;99.90
12853;DHT22;6495;51.808;7.478;2023-04-25T16:25:27;11.80;99.90
12853;DHT22;6495;51.808;7.478;2023-04-25T16:28:15;11.80;99.90
12853;DHT22;6495;51.808;7.478;2023-04-25T16:31:04;11.80;99.90
12853;DHT22;6495;51.808;7.478;2023-04-25T16:33:55;11.90;99.90
12853;DHT22;6495;51.808;7.478;2023-04-25T16:36:45;12.00;99.90
12853;DHT22;6495;51.808;7.478;2023-04-25T16:43:43;12.00;99.50
12853;DHT22;6495;51.808;7.478;2023-04-25T16:46:32;11.90;99.90
12853;DHT22;6495;51.808;7.478;2023-04-25T16:49:25;11.80;99.90
12853;DHT22;6495;51.808;7.478;2023-04-25T16:52:13;11.70;99.90
12853;DHT22;6495;51.808;7.478;2023-04-25T16:55:03;11.60;99.90
12853;DHT22;6495;51.808;7.478;2023-04-25T16:57:52;11.50;99.90
12853;DHT22;6495;51.808;7.478;2023-04-25T17:00:41;11.40;99.90
12853;DHT22;6495;51.808;7.478;2023-04-25T17:03:40;11.30;99.90
12853;DHT22;6495;51.808;7.478;2023-04-25T17:06:31;11.30;99.90
12853;DHT22;6495;51.808;7.478;2023-04-25T17:09:21;11.20;99.90
12853;DHT22;6495;51.808;7.478;2023-04-25T17:12:09;11.20;99.90
12853;DHT22;6495;51.808;7.478;2023-04-25T17:14:58;11.10;99.90
12853;DHT22;6495;51.808;7.478;2023-04-25T17:36:08;10.90;99.90
12853;DHT22;6495;51.808;7.478;2023-04-25T17:38:56;11.00;99.90
12853;DHT22;6495;51.808;7.478;2023-04-25T17:41:45;10.90;99.90
12853;DHT22;6495;51.808;7.478;2023-04-25T17:44:33;10.90;99.90
12853;DHT22;6495;51.808;7.478;2023-04-25T17:47:22;10.90;99.90
12853;DHT22;6495;51.808;7.478;2023-04-25T17:50:11;10.80;99.90
12853;DHT22;6495;51.808;7.478;2023-04-25T17:53:03;10.70;99.90
12853;DHT22;6495;51.808;7.478;2023-04-25T17:55:52;10.60;99.90
12853;DHT22;6495;51.808;7.478;2023-04-25T17:58:42;10.50;99.90
12853;DHT22;6495;51.808;7.478;2023-04-25T18:01:30;10.40;99.90
12853;DHT22;6495;51.808;7.478;2023-04-25T18:04:19;10.30;99.90
12853;DHT22;6495;51.808;7.478;2023-04-25T18:07:08;10.30;99.90
12853;DHT22;6495;51.808;7.478;2023-04-25T18:09:58;10.30;99.90
12853;DHT22;6495;51.808;7.478;2023-04-25T18:12:46;10.20;99.90
12853;DHT22;6495;51.808;7.478;2023-04-25T18:15:36;10.20;99.90
12853;DHT22;6495;51.808;7.478;2023-04-25T18:18:25;10.10;99.90
12853;DHT22;6495;51.808;7.478;2023-04-25T18:21:19;10.10;99.90
12853;DHT22;6495;51.808;7.478;2023-04-25T18:24:10;10.00;99.90
12853;DHT22;6495;51.808;7.478;2023-04-25T18:27:07;10.00;99.90
12853;DHT22;6495;51.808;7.478;2023-04-25T18:29:56;9.90;99.90
12853;DHT22;6495;51.808;7.478;2023-04-25T18:32:45;9.90;99.90
12853;DHT22;6495;51.808;7.478;2023-04-25T18:35:34;9.80;99.90
12853;DHT22;6495;51.808;7.478;2023-04-25T18:38:31;9.80;99.90
12853;DHT22;6495;51.808;7.478;2023-04-25T18:41:36;9.70;99.90
12853;DHT22;6495;51.808;7.478;2023-04-25T18:44:46;9.70;99.90
12853;DHT22;6495;51.808;7.478;2023-04-25T18:47:34;9.60;99.90
12853;DHT22;6495;51.808;7.478;2023-04-25T18:50:23;9.50;99.90
12853;DHT22;6495;51.808;7.478;2023-04-25T18:53:12;9.50;99.90
12853;DHT22;6495;51.808;7.478;2023-04-25T18:56:01;9.50;99.90
12853;DHT22;6495;51.808;7.478;2023-04-25T18:58:49;9.40;99.90
12853;DHT22;6495;51.808;7.478;2023-04-25T19:01:41;9.40;99.90
12853;DHT22;6495;51.808;7.478;2023-04-25T19:04:30;9.30;99.90
12853;DHT22;6495;51.808;7.478;2023-04-25T19:07:18;9.30;99.90
12853;DHT22;6495;51.808;7.478;2023-04-25T19:10:08;9.20;99.90
12853;DHT22;6495;51.808;7.478;2023-04-25T19:12:58;9.20;99.90
12853;DHT22;6495;51.808;7.478;2023-04-25T19:15:47;9.20;99.90
12853;DHT22;6495;51.808;7.478;2023-04-25T19:18:48;9.10;99.90
12853;DHT22;6495;51.808;7.478;2023-04-25T19:21:40;9.10;99.90
12853;DHT22;6495;51.808;7.478;2023-04-25T19:24:28;9.00;99.90
12853;DHT22;6495;51.808;7.478;2023-04-25T19:27:20;9.00;99.90
12853;DHT22;6495;51.808;7.478;2023-04-25T19:30:09;8.90;99.90
12853;DHT22;6495;51.808;7.478;2023-04-25T19:32:58;8.90;99.90
12853;DHT22;6495;51.808;7.478;2023-04-25T19:35:49;8.80;99.90
12853;DHT22;6495;51.808;7.478;2023-04-25T19:38:37;8.80;99.90
12853;DHT22;6495;51.808;7.478;2023-04-25T19:41:26;8.80;99.90
12853;DHT22;6495;51.808;7.478;2023-04-25T19:44:14;8.70;99.90
12853;DHT22;6495;51.808;7.478;2023-04-25T19:47:03;8.60;99.90
12853;DHT22;6495;51.808;7.478;2023-04-25T19:49:52;8.60;99.90
12853;DHT22;6495;51.808;7.478;2023-04-25T19:52:42;8.50;99.90
12853;DHT22;6495;51.808;7.478;2023-04-25T19:55:31;8.50;99.90